Time;durP1;ratioP1;P1;durP2;ratioP2;P2;SDS_P1;SDS_P2;PMS_P1;PMS_P2;Temp;Humidity;BMP_temperature;BMP_pressure;BME280_temperature;BME280_humidity;BME280_pressure;Samples;Min_cycle;Max_cycle;Signal;HPM_P1;HPM_P2
2022/09/09 00:00:55;;;;;;;16.10;7.60;;;;;;;16.18;90.98;99893.27;105393;1277;22578;-66
2022/09/09 00:03:45;;;;;;;14.20;5.90;;;;;;;16.14;90.81;99894.53;105520;1277;25360;-65
2022/09/09 00:06:27;;;;;;;16.90;6.20;;;;;;;16.09;90.68;99902.98;105446;1276;22534;-66
2022/09/09 00:09:08;;;;;;;17.80;6.50;;;;;;;16.05;91.08;99902.56;105567;1276;25531;-66
2022/09/09 00:11:47;;;;;;;16.40;6.30;;;;;;;16.02;91.08;99903.55;105557;1275;24243;-65
2022/09/09 00:14:29;;;;;;;19.20;6.50;;;;;;;15.99;91.27;99907.10;105525;1274;22544;-67
2022/09/09 00:17:05;;;;;;;14.50;5.90;;;;;;;15.96;91.30;99908.31;105395;1277;26535;-65
2022/09/09 00:19:46;;;;;;;14.90;6.40;;;;;;;15.93;91.35;99907.83;105519;1277;25332;-65
2022/09/09 00:22:20;;;;;;;14.50;6.00;;;;;;;15.89;91.54;99903.30;105465;1277;25317;-65
2022/09/09 00:24:55;;;;;;;18.40;6.60;;;;;;;15.87;91.47;99902.56;105571;1277;22533;-65
2022/09/09 00:27:38;;;;;;;14.50;5.90;;;;;;;15.84;91.40;99905.90;105404;1276;22557;-65
2022/09/09 00:30:22;;;;;;;13.00;5.90;;;;;;;15.82;91.40;99905.52;105465;1274;22530;-65
2022/09/09 00:32:59;;;;;;;11.70;5.10;;;;;;;15.79;91.31;99907.83;105499;1278;22725;-67
2022/09/09 00:35:35;;;;;;;10.50;4.80;;;;;;;15.76;91.29;99903.40;105477;1276;25244;-65
2022/09/09 00:38:14;;;;;;;12.90;4.30;;;;;;;15.73;91.25;99900.20;105598;1274;24424;-66
2022/09/09 00:40:52;;;;;;;12.60;4.50;;;;;;;15.68;91.06;99901.46;105583;1274;22680;-65
2022/09/09 00:43:33;;;;;;;14.10;5.60;;;;;;;15.64;91.09;99901.95;105524;1277;22713;-65
2022/09/09 00:46:39;;;;;;;12.40;3.70;;;;;;;15.59;90.96;99902.40;105423;1277;22718;-65
2022/09/09 00:49:22;;;;;;;12.60;4.30;;;;;;;15.55;90.84;99905.65;105524;1277;27239;-66
2022/09/09 00:52:05;;;;;;;9.50;3.60;;;;;;;15.52;90.88;99904.29;105489;1277;25508;-66
2022/09/09 00:54:47;;;;;;;11.60;3.20;;;;;;;15.49;90.78;99907.95;105603;1277;22703;-65
2022/09/09 00:57:28;;;;;;;15.00;3.50;;;;;;;15.45;90.92;99904.84;105414;1274;22562;-65
2022/09/09 01:00:18;;;;;;;9.30;2.70;;;;;;;15.41;90.87;99902.58;105663;1275;22918;-65
2022/09/09 01:03:02;;;;;;;7.50;2.60;;;;;;;15.38;90.77;99902.96;105498;1277;22553;-67
2022/09/09 01:05:43;;;;;;;9.20;2.60;;;;;;;15.34;90.69;99909.42;105505;1277;22601;-65
2022/09/09 01:08:27;;;;;;;11.30;3.10;;;;;;;15.30;90.69;99909.09;105496;1274;22700;-65
2022/09/09 01:11:02;;;;;;;8.50;3.10;;;;;;;15.24;90.61;99910.59;105506;1277;25378;-65
2022/09/09 01:13:37;;;;;;;8.50;3.00;;;;;;;15.22;90.54;99907.34;105492;1277;24270;-66
2022/09/09 01:16:13;;;;;;;10.20;2.70;;;;;;;15.19;90.51;99908.94;105368;1276;22774;-65
2022/09/09 01:18:49;;;;;;;8.70;2.50;;;;;;;15.15;90.34;99910.65;105779;1274;25354;-65
2022/09/09 01:21:32;;;;;;;8.40;3.00;;;;;;;15.11;90.28;99916.50;105580;1274;23201;-65
2022/09/09 01:24:20;;;;;;;8.00;2.60;;;;;;;15.05;90.13;99919.13;105523;1275;24270;-66
2022/09/09 01:26:57;;;;;;;7.90;2.90;;;;;;;15.01;90.23;99922.41;105714;1277;24297;-65
2022/09/09 01:29:30;;;;;;;8.30;2.40;;;;;;;14.96;90.18;99919.22;105563;1274;24285;-64
2022/09/09 01:32:03;;;;;;;8.10;2.80;;;;;;;14.91;89.90;99923.52;105637;1274;22564;-65
2022/09/09 01:34:41;;;;;;;10.40;2.30;;;;;;;14.85;89.98;99926.16;105549;1277;25221;-65
2022/09/09 01:37:15;;;;;;;7.70;2.50;;;;;;;14.77;89.89;99927.46;105591;1275;24791;-65
2022/09/09 01:39:48;;;;;;;5.90;2.00;;;;;;;14.71;89.93;99930.60;105468;1275;25529;-65
2022/09/09 01:42:20;;;;;;;5.40;2.00;;;;;;;14.66;89.96;99931.92;105734;1276;22550;-65
2022/09/09 01:44:54;;;;;;;9.50;2.20;;;;;;;14.60;89.85;99932.52;105517;1277;25454;-66
2022/09/09 01:47:25;;;;;;;5.80;2.10;;;;;;;14.56;89.76;99937.84;105606;1275;22556;-65
2022/09/09 01:49:59;;;;;;;10.20;2.50;;;;;;;14.54;89.79;99934.61;105570;1275;23760;-66
2022/09/09 01:52:31;;;;;;;8.50;2.70;;;;;;;14.50;89.83;99937.17;105533;1276;22548;-65
2022/09/09 01:55:04;;;;;;;7.10;2.40;;;;;;;14.47;89.70;99937.53;105629;1275;22554;-65
2022/09/09 01:57:40;;;;;;;8.30;2.60;;;;;;;14.43;89.57;99939.48;105586;1274;24452;-65
2022/09/09 02:00:16;;;;;;;8.00;2.40;;;;;;;14.38;89.48;99936.54;105525;1274;22543;-65
2022/09/09 02:02:57;;;;;;;10.30;2.20;;;;;;;14.34;89.54;99939.56;105480;1276;25245;-65
2022/09/09 02:05:37;;;;;;;6.50;1.80;;;;;;;14.29;89.49;99942.81;105379;1276;24336;-65
2022/09/09 02:08:13;;;;;;;11.30;2.40;;;;;;;14.26;89.59;99943.15;105549;1275;22572;-65
2022/09/09 02:10:50;;;;;;;10.00;2.70;;;;;;;14.23;89.59;99945.14;105406;1275;22601;-65
2022/09/09 02:13:23;;;;;;;8.60;2.70;;;;;;;14.20;89.50;99946.12;105471;1275;22544;-65
2022/09/09 02:16:01;;;;;;;6.80;2.50;;;;;;;14.18;89.60;99950.91;105467;1275;22534;-64
2022/09/09 02:18:36;;;;;;;8.40;3.10;;;;;;;14.14;89.48;99950.19;105463;1275;25260;-65
2022/09/09 02:21:10;;;;;;;6.20;2.10;;;;;;;14.10;89.53;99959.29;105507;1274;25420;-65
2022/09/09 02:23:44;;;;;;;6.60;2.30;;;;;;;14.08;89.60;99958.46;105497;1276;22607;-64
2022/09/09 02:26:21;;;;;;;7.90;2.00;;;;;;;14.05;89.57;99963.06;105566;1275;25498;-65
2022/09/09 02:28:56;;;;;;;6.20;2.30;;;;;;;14.02;89.70;99960.09;105410;1275;22568;-64
2022/09/09 02:31:28;;;;;;;8.10;2.80;;;;;;;13.98;89.72;99959.73;105529;1274;22873;-65
2022/09/09 02:34:03;;;;;;;10.10;2.80;;;;;;;13.96;89.75;99958.86;105627;1274;25397;-64
2022/09/09 02:36:39;;;;;;;7.30;2.00;;;;;;;13.92;89.63;99956.37;105511;1275;22548;-64
2022/09/09 02:39:11;;;;;;;7.00;2.10;;;;;;;13.90;89.68;99955.34;105579;1274;24310;-65
2022/09/09 02:41:44;;;;;;;8.90;2.20;;;;;;;13.86;89.72;99957.98;105521;1275;25499;-64
2022/09/09 02:44:17;;;;;;;6.60;2.10;;;;;;;13.82;89.74;99965.08;105846;1274;22557;-67
2022/09/09 02:47:05;;;;;;;10.30;2.80;;;;;;;13.79;89.46;99965.48;105493;1276;22645;-65
2022/09/09 02:49:49;;;;;;;7.00;2.10;;;;;;;13.76;89.62;99963.44;105468;1276;22544;-65
2022/09/09 02:52:29;;;;;;;5.40;2.00;;;;;;;13.73;89.67;99967.41;105556;1274;22618;-65
2022/09/09 02:55:06;;;;;;;7.80;2.00;;;;;;;13.67;89.65;99967.50;105382;1275;22630;-64
2022/09/09 02:57:40;;;;;;;6.70;1.80;;;;;;;13.64;89.62;99967.85;105464;1274;23011;-67
2022/09/09 03:00:14;;;;;;;12.30;3.00;;;;;;;13.62;89.71;99964.89;105637;1275;22573;-64
2022/09/09 03:02:46;;;;;;;7.20;2.20;;;;;;;13.61;89.68;99968.03;105682;1277;25415;-64
2022/09/09 03:05:18;;;;;;;6.60;2.40;;;;;;;13.58;89.52;99970.33;105654;1275;23956;-65
2022/09/09 03:07:50;;;;;;;7.30;2.30;;;;;;;13.54;89.59;99969.41;105584;1276;22605;-64
2022/09/09 03:10:23;;;;;;;6.10;1.90;;;;;;;13.50;89.60;99974.09;105551;1275;22584;-64
2022/09/09 03:12:55;;;;;;;8.30;2.30;;;;;;;13.46;89.74;99973.57;105536;1275;25327;-65
2022/09/09 03:15:28;;;;;;;5.80;1.90;;;;;;;13.44;89.53;99973.00;105519;1274;24237;-65
2022/09/09 03:18:00;;;;;;;7.50;2.40;;;;;;;13.41;89.50;99978.23;101574;1274;5563510;-64
2022/09/09 03:20:32;;;;;;;5.80;2.20;;;;;;;13.38;89.55;99982.52;105602;1276;25261;-64
2022/09/09 03:23:04;;;;;;;7.00;1.70;;;;;;;13.37;89.62;99990.55;105535;1274;22600;-65
2022/09/09 03:25:36;;;;;;;6.40;2.00;;;;;;;13.35;89.50;99989.95;105443;1275;22630;-65
2022/09/09 03:28:08;;;;;;;7.00;1.90;;;;;;;13.32;89.77;99991.30;105582;1276;24451;-65
2022/09/09 03:30:41;;;;;;;5.20;1.80;;;;;;;13.28;89.52;99990.84;105550;1276;22871;-64
2022/09/09 03:33:14;;;;;;;4.30;1.30;;;;;;;13.26;89.67;99987.98;105644;1274;22604;-65
2022/09/09 03:35:49;;;;;;;5.40;1.40;;;;;;;13.25;89.63;99983.06;105482;1276;25522;-64
2022/09/09 03:38:21;;;;;;;5.60;1.60;;;;;;;13.23;89.70;99985.56;105562;1275;24489;-65
2022/09/09 03:40:57;;;;;;;5.30;1.60;;;;;;;13.21;89.67;99982.27;105607;1275;23029;-64
2022/09/09 03:43:30;;;;;;;6.80;1.90;;;;;;;13.16;89.56;99990.48;105537;1275;24257;-64
2022/09/09 03:46:03;;;;;;;4.50;1.50;;;;;;;13.11;89.69;99992.19;105675;1275;24350;-64
2022/09/09 03:48:35;;;;;;;4.90;1.50;;;;;;;13.07;89.73;99994.26;105528;1276;22618;-64
2022/09/09 03:51:07;;;;;;;4.20;1.50;;;;;;;13.06;89.87;99987.78;105539;1275;24416;-65
2022/09/09 03:53:38;;;;;;;4.30;1.60;;;;;;;13.03;89.69;99988.19;105540;1276;22620;-64
2022/09/09 03:56:11;;;;;;;5.30;1.70;;;;;;;12.99;89.59;99991.73;105532;1274;24411;-66
2022/09/09 03:58:43;;;;;;;6.20;1.60;;;;;;;12.95;89.78;99992.84;105407;1275;23118;-65
2022/09/09 04:01:17;;;;;;;6.50;1.90;;;;;;;12.94;89.76;99991.56;105407;1275;25228;-65
2022/09/09 04:03:50;;;;;;;4.30;1.70;;;;;;;12.92;89.57;99995.98;105794;1275;25093;-65
2022/09/09 04:06:21;;;;;;;7.00;2.40;;;;;;;12.88;89.60;99997.48;105724;1275;22556;-65
2022/09/09 04:08:53;;;;;;;5.10;1.70;;;;;;;12.86;89.76;99998.54;105664;1275;24378;-65
2022/09/09 04:11:26;;;;;;;4.60;1.80;;;;;;;12.84;89.77;100002.95;105607;1275;25586;-65
2022/09/09 04:13:58;;;;;;;4.90;1.50;;;;;;;12.83;89.66;100003.52;105555;1275;26509;-66
2022/09/09 04:16:29;;;;;;;7.40;1.90;;;;;;;12.81;89.55;100004.69;105726;1275;24276;-66
2022/09/09 04:19:04;;;;;;;8.40;1.80;;;;;;;12.79;89.67;100004.35;105526;1275;26659;-66
2022/09/09 04:21:39;;;;;;;6.70;2.10;;;;;;;12.78;89.78;100001.55;105574;1275;23152;-65
2022/09/09 04:24:11;;;;;;;6.20;2.10;;;;;;;12.76;89.71;100004.30;105484;1276;22586;-65
2022/09/09 04:26:42;;;;;;;6.90;2.10;;;;;;;12.76;89.80;100010.09;105453;1275;22557;-65
2022/09/09 04:29:14;;;;;;;9.80;2.10;;;;;;;12.76;89.84;100012.89;105351;1275;25258;-65
2022/09/09 04:31:48;;;;;;;9.30;3.10;;;;;;;12.76;89.80;100013.20;105411;1275;22756;-65
2022/09/09 04:34:19;;;;;;;9.90;3.30;;;;;;;12.76;90.03;100013.70;105504;1275;22709;-65
2022/09/09 04:36:52;;;;;;;5.80;1.90;;;;;;;12.76;90.07;100013.58;106149;1275;25520;-65
2022/09/09 04:39:23;;;;;;;6.80;2.10;;;;;;;12.76;90.13;100018.55;105571;1275;25339;-65
2022/09/09 04:41:55;;;;;;;5.00;1.40;;;;;;;12.74;90.24;100017.87;105483;1275;22561;-65
2022/09/09 04:44:27;;;;;;;6.30;1.50;;;;;;;12.72;90.12;100012.66;105437;1275;22635;-65
2022/09/09 04:46:59;;;;;;;3.80;1.30;;;;;;;12.70;90.30;100013.73;105527;1275;25457;-65
2022/09/09 04:49:31;;;;;;;5.00;1.60;;;;;;;12.69;90.17;100011.11;105602;1275;23532;-65
2022/09/09 04:52:05;;;;;;;5.30;1.80;;;;;;;12.68;90.41;100015.79;105473;1275;22708;-65
2022/09/09 04:54:36;;;;;;;8.80;2.90;;;;;;;12.68;90.52;100015.38;105500;1275;24348;-66
2022/09/09 04:57:08;;;;;;;9.20;3.00;;;;;;;12.69;90.53;100014.02;105447;1275;25266;-65
2022/09/09 04:59:40;;;;;;;7.60;2.30;;;;;;;12.72;90.73;100019.44;105679;1275;24373;-65
2022/09/09 05:02:12;;;;;;;5.40;2.00;;;;;;;12.74;90.83;100018.84;105562;1275;25437;-65
2022/09/09 05:04:46;;;;;;;8.40;2.60;;;;;;;12.76;91.14;100019.41;105594;1275;22509;-65
2022/09/09 05:07:19;;;;;;;7.30;2.90;;;;;;;12.80;91.10;100014.34;105514;1275;22706;-64
2022/09/09 05:09:51;;;;;;;8.60;2.70;;;;;;;12.83;91.32;100018.54;105516;1275;24449;-66
2022/09/09 05:12:23;;;;;;;8.50;2.70;;;;;;;12.88;91.11;100019.54;105507;1275;22979;-65
2022/09/09 05:14:54;;;;;;;6.90;2.50;;;;;;;12.91;91.40;100027.67;105581;1275;22553;-65
2022/09/09 05:17:27;;;;;;;6.00;2.10;;;;;;;12.94;91.49;100030.17;105757;1275;24463;-65
2022/09/09 05:19:59;;;;;;;5.00;2.10;;;;;;;12.98;91.38;100030.86;105700;1275;22745;-65
2022/09/09 05:22:31;;;;;;;5.10;1.90;;;;;;;13.03;91.50;100032.94;105521;1275;25554;-65
2022/09/09 05:25:02;;;;;;;6.50;1.90;;;;;;;13.08;91.53;100033.50;105583;1275;24336;-65
2022/09/09 05:27:37;;;;;;;8.10;2.10;;;;;;;13.13;91.71;100030.05;105529;1275;22914;-65
2022/09/09 05:30:11;;;;;;;7.90;2.50;;;;;;;13.19;91.93;100036.15;105509;1275;23962;-66
2022/09/09 05:32:43;;;;;;;9.70;2.80;;;;;;;13.24;92.10;100037.10;105855;1275;26036;-66
2022/09/09 05:35:15;;;;;;;9.50;3.40;;;;;;;13.28;92.10;100036.46;105588;1275;25384;-65
2022/09/09 05:37:47;;;;;;;11.10;3.10;;;;;;;13.33;92.32;100037.09;105565;1275;22705;-65
2022/09/09 05:40:21;;;;;;;9.50;3.80;;;;;;;13.38;92.47;100035.08;105653;1275;22560;-65
2022/09/09 05:42:54;;;;;;;10.60;4.40;;;;;;;13.44;92.62;100039.12;105401;1275;25538;-65
2022/09/09 05:45:26;;;;;;;13.50;3.50;;;;;;;13.50;93.01;100040.98;105548;1275;25361;-65
2022/09/09 05:47:59;;;;;;;9.00;4.20;;;;;;;13.55;93.06;100042.48;105853;1275;22603;-65
2022/09/09 05:50:31;;;;;;;10.20;4.00;;;;;;;13.61;93.69;100047.39;105364;1275;22612;-66
2022/09/09 05:53:03;;;;;;;13.10;4.50;;;;;;;13.66;93.91;100044.40;105559;1275;25254;-66
2022/09/09 05:55:35;;;;;;;10.10;4.80;;;;;;;13.71;93.74;100045.45;105498;1275;22688;-65
2022/09/09 05:58:07;;;;;;;11.90;4.80;;;;;;;13.77;93.74;100045.05;105540;1275;22571;-66
2022/09/09 06:00:38;;;;;;;12.70;4.70;;;;;;;13.83;94.23;100039.46;105426;1275;22565;-65
2022/09/09 06:03:13;;;;;;;9.20;3.80;;;;;;;13.89;94.43;100040.75;105604;1275;22601;-66
2022/09/09 06:05:45;;;;;;;11.60;4.60;;;;;;;13.95;94.83;100044.23;105543;1275;22644;-65
2022/09/09 06:08:16;;;;;;;9.70;4.50;;;;;;;14.03;95.00;100050.12;105471;1275;22560;-64
2022/09/09 06:10:48;;;;;;;16.80;7.50;;;;;;;14.08;95.32;100055.17;105467;1277;25934;-66
2022/09/09 06:13:20;;;;;;;12.40;5.90;;;;;;;14.14;95.49;100053.45;106486;1275;24309;-65
2022/09/09 06:15:55;;;;;;;13.40;6.90;;;;;;;14.20;95.69;100052.14;105526;1275;25201;-66
2022/09/09 06:18:27;;;;;;;13.90;5.80;;;;;;;14.28;95.98;100045.67;106435;1274;22535;-65
2022/09/09 06:21:02;;;;;;;14.70;5.40;;;;;;;14.35;95.88;100042.79;106901;1274;22534;-66
2022/09/09 06:23:35;;;;;;;10.30;4.70;;;;;;;14.42;96.04;100037.58;107204;1274;22996;-66
2022/09/09 06:26:10;;;;;;;11.50;5.60;;;;;;;14.50;96.12;100034.46;105579;1274;24430;-65
2022/09/09 06:28:44;;;;;;;13.80;5.30;;;;;;;14.57;96.27;100039.38;105356;1275;24446;-66
2022/09/09 06:31:17;;;;;;;10.80;4.20;;;;;;;14.65;96.24;100043.39;105826;1275;22582;-65
2022/09/09 06:33:49;;;;;;;10.50;4.90;;;;;;;14.73;96.62;100037.05;105644;1275;25103;-65
2022/09/09 06:36:23;;;;;;;10.10;4.10;;;;;;;14.82;96.96;100033.82;105543;1275;25266;-65
2022/09/09 06:38:56;;;;;;;12.10;3.60;;;;;;;14.89;96.71;100035.14;105642;1275;22496;-66
2022/09/09 06:41:30;;;;;;;10.30;4.80;;;;;;;14.96;96.99;100039.31;105437;1275;22575;-65
2022/09/09 06:44:03;;;;;;;8.60;3.80;;;;;;;15.06;97.32;100044.26;105624;1274;25493;-65
2022/09/09 06:46:35;;;;;;;10.30;4.00;;;;;;;15.14;97.55;100047.77;105510;1275;22781;-65
2022/09/09 06:49:06;;;;;;;12.60;4.30;;;;;;;15.25;97.98;100047.42;105414;1275;22611;-67
2022/09/09 06:51:42;;;;;;;8.90;4.20;;;;;;;15.38;98.39;100050.71;105436;1274;25606;-65
2022/09/09 06:54:14;;;;;;;10.00;4.00;;;;;;;15.49;98.12;100049.32;105534;1274;25532;-67
2022/09/09 06:56:45;;;;;;;14.50;4.50;;;;;;;15.56;97.72;100050.00;105499;1275;22580;-66
2022/09/09 06:59:17;;;;;;;12.40;2.90;;;;;;;15.64;98.21;100047.45;105639;1274;23477;-65
2022/09/09 07:01:51;;;;;;;8.50;3.30;;;;;;;15.75;98.14;100048.84;105506;1275;24474;-66
2022/09/09 07:04:22;;;;;;;14.60;2.50;;;;;;;15.86;98.11;100046.27;105341;1275;25464;-66
2022/09/09 07:06:54;;;;;;;13.10;3.50;;;;;;;15.98;98.29;100048.81;105459;1275;25442;-66
2022/09/09 07:09:27;;;;;;;9.70;2.90;;;;;;;16.10;97.88;100051.20;105533;1274;22541;-65
2022/09/09 07:11:59;;;;;;;8.60;2.80;;;;;;;16.19;97.94;100054.56;105551;1274;24330;-65
2022/09/09 07:14:31;;;;;;;7.80;2.70;;;;;;;16.31;97.80;100051.42;105603;1275;22556;-66
2022/09/09 07:17:02;;;;;;;8.00;2.50;;;;;;;16.43;97.52;100055.67;105530;1274;22776;-66
2022/09/09 07:19:34;;;;;;;8.90;2.40;;;;;;;16.53;97.43;100058.13;105431;1275;25403;-65
2022/09/09 07:22:06;;;;;;;5.50;1.80;;;;;;;16.65;97.45;100058.35;105685;1275;22555;-67
2022/09/09 07:24:37;;;;;;;6.30;2.20;;;;;;;16.74;96.91;100057.49;105786;1275;22695;-66
2022/09/09 07:27:09;;;;;;;8.70;2.20;;;;;;;16.83;97.06;100063.33;105670;1274;23394;-66
2022/09/09 07:29:40;;;;;;;7.20;2.10;;;;;;;16.92;96.49;100066.20;105520;1275;22565;-65
2022/09/09 07:32:12;;;;;;;9.50;2.10;;;;;;;17.00;96.70;100061.52;105634;1274;24480;-65
2022/09/09 07:34:43;;;;;;;5.80;2.00;;;;;;;17.08;96.87;100057.64;105584;1275;24330;-65
2022/09/09 07:37:15;;;;;;;9.60;2.20;;;;;;;17.16;96.58;100053.81;105553;1275;22538;-67
2022/09/09 07:39:47;;;;;;;10.50;1.90;;;;;;;17.25;97.01;100049.14;105461;1274;22595;-66
2022/09/09 07:42:19;;;;;;;4.90;1.60;;;;;;;17.35;96.35;100050.48;105754;1274;26418;-65
2022/09/09 07:44:54;;;;;;;10.80;1.90;;;;;;;17.42;95.53;100055.92;105542;1275;24295;-65
2022/09/09 07:47:26;;;;;;;8.30;1.50;;;;;;;17.50;95.09;100063.75;105374;1275;24300;-66
2022/09/09 07:49:58;;;;;;;4.60;1.60;;;;;;;17.59;95.65;100064.06;105572;1274;22717;-67
2022/09/09 07:52:30;;;;;;;5.00;1.60;;;;;;;17.63;95.06;100071.66;105440;1275;24263;-65
2022/09/09 07:55:04;;;;;;;5.90;1.90;;;;;;;17.65;95.14;100077.64;105557;1275;25373;-65
2022/09/09 07:57:36;;;;;;;6.80;1.80;;;;;;;17.70;95.07;100081.63;105526;1275;22865;-65
2022/09/09 08:00:10;;;;;;;11.90;1.80;;;;;;;17.78;95.11;100077.48;105567;1274;22536;-64
2022/09/09 08:02:42;;;;;;;9.90;2.10;;;;;;;17.87;95.03;100078.55;105509;1275;25352;-65
2022/09/09 08:05:14;;;;;;;6.60;1.60;;;;;;;17.97;95.20;100082.09;105525;1274;22733;-64
2022/09/09 08:07:47;;;;;;;4.20;1.50;;;;;;;18.05;94.88;100081.38;105516;1275;22531;-65
2022/09/09 08:10:18;;;;;;;6.90;1.40;;;;;;;18.18;95.15;100078.00;105423;1275;22572;-65
2022/09/09 08:12:50;;;;;;;6.70;1.40;;;;;;;18.29;94.71;100076.27;105335;1275;22714;-65
2022/09/09 08:15:22;;;;;;;6.90;1.40;;;;;;;18.35;93.90;100070.50;105575;1274;24403;-64
2022/09/09 08:17:54;;;;;;;7.40;1.10;;;;;;;18.43;93.52;100072.14;105585;1274;22590;-64
2022/09/09 08:20:27;;;;;;;3.60;1.20;;;;;;;18.52;92.32;100072.64;105541;1274;24435;-66
2022/09/09 08:23:00;;;;;;;4.20;0.90;;;;;;;18.56;91.36;100070.76;105629;1274;24595;-65
2022/09/09 08:25:34;;;;;;;7.30;1.10;;;;;;;18.61;90.28;100070.50;105577;1275;27460;-65
2022/09/09 08:28:06;;;;;;;5.10;1.20;;;;;;;18.62;90.64;100072.32;105572;1274;25384;-66
2022/09/09 08:30:37;;;;;;;10.50;1.20;;;;;;;18.66;91.33;100071.74;105529;1274;25534;-65
2022/09/09 08:33:10;;;;;;;3.60;1.00;;;;;;;18.73;90.95;100068.45;105637;1274;22560;-64
2022/09/09 08:35:50;;;;;;;5.60;1.10;;;;;;;18.81;91.02;100064.70;105669;1275;22567;-65
2022/09/09 08:38:22;;;;;;;5.00;1.00;;;;;;;18.91;89.69;100069.39;105621;1274;22609;-64
2022/09/09 08:41:03;;;;;;;3.50;0.90;;;;;;;18.96;90.02;100069.79;105543;1275;26410;-65
2022/09/09 08:43:37;;;;;;;5.00;0.70;;;;;;;19.00;88.59;100065.84;105450;1275;22540;-65
2022/09/09 08:46:16;;;;;;;8.40;0.90;;;;;;;19.05;88.60;100065.52;105480;1275;22733;-65
2022/09/09 08:48:57;;;;;;;3.50;0.90;;;;;;;19.09;87.44;100063.52;105586;1275;25434;-64
2022/09/09 08:51:33;;;;;;;2.30;0.60;;;;;;;19.15;87.73;100064.30;105525;1274;22535;-64
2022/09/09 08:54:06;;;;;;;4.10;0.70;;;;;;;19.17;86.82;100075.88;105726;1274;22686;-66
2022/09/09 08:56:39;;;;;;;8.40;1.10;;;;;;;19.22;87.01;100074.34;105466;1275;25435;-64
2022/09/09 08:59:15;;;;;;;4.10;0.80;;;;;;;19.31;87.23;100077.27;105609;1274;25259;-65
2022/09/09 09:02:01;;;;;;;7.30;0.80;;;;;;;19.37;85.89;100078.77;105603;1275;22581;-65
2022/09/09 09:04:44;;;;;;;5.10;1.00;;;;;;;19.38;85.21;100076.29;105647;1274;25259;-65
2022/09/09 09:07:29;;;;;;;5.50;0.80;;;;;;;19.41;85.45;100081.21;105613;1275;25731;-66
2022/09/09 09:10:11;;;;;;;1.70;0.40;;;;;;;19.48;84.81;100081.80;105389;1275;22553;-66
2022/09/09 09:12:47;;;;;;;1.50;0.50;;;;;;;19.55;84.06;100083.26;105483;1274;22551;-65
2022/09/09 09:15:24;;;;;;;11.00;1.30;;;;;;;19.58;83.00;100080.05;105703;1274;23981;-66
2022/09/09 09:17:55;;;;;;;3.80;0.60;;;;;;;19.60;83.07;100081.15;105458;1275;22637;-65
2022/09/09 09:20:41;;;;;;;3.30;0.60;;;;;;;19.66;83.27;100085.04;105416;1275;22554;-66
2022/09/09 09:23:22;;;;;;;2.90;0.60;;;;;;;19.72;82.42;100084.05;105489;1275;22616;-66
2022/09/09 09:25:59;;;;;;;3.10;0.60;;;;;;;19.78;82.38;100077.46;105537;1275;22540;-66
2022/09/09 09:28:33;;;;;;;5.20;0.90;;;;;;;19.85;82.18;100076.49;105520;1275;22982;-66
2022/09/09 09:31:08;;;;;;;3.50;0.60;;;;;;;19.96;82.56;100078.28;105425;1275;22777;-66
2022/09/09 09:33:47;;;;;;;3.20;0.50;;;;;;;20.04;80.62;100079.18;105530;1274;22654;-66
2022/09/09 09:36:18;;;;;;;;;;;;;;;20.09;80.96;100083.55;105666;1274;22528;-66
2022/09/09 09:39:01;;;;;;;2.20;0.40;;;;;;;20.09;79.88;100081.02;105508;1275;24390;-66
2022/09/09 09:41:36;;;;;;;2.80;0.40;;;;;;;20.14;80.03;100084.77;105563;1275;24088;-65
2022/09/09 09:44:23;;;;;;;1.50;0.40;;;;;;;20.19;78.88;100086.55;105523;1274;25547;-64
2022/09/09 09:47:06;;;;;;;3.30;0.60;;;;;;;20.21;78.13;100083.67;105415;1275;24239;-65
2022/09/09 09:49:38;;;;;;;6.70;0.60;;;;;;;20.20;77.49;100078.89;105463;1275;23513;-66
2022/09/09 09:52:18;;;;;;;5.20;0.70;;;;;;;20.19;78.38;100082.91;105477;1275;22544;-66
2022/09/09 09:54:50;;;;;;;3.00;0.60;;;;;;;20.20;78.30;100080.65;105419;1275;25628;-66
2022/09/09 09:57:29;;;;;;;2.40;0.40;;;;;;;20.19;77.19;100082.30;105482;1275;24270;-66
2022/09/09 10:00:17;;;;;;;5.70;0.70;;;;;;;20.22;77.05;100081.95;105637;1274;24339;-67
2022/09/09 10:02:51;;;;;;;6.90;0.70;;;;;;;20.27;76.80;100083.82;105530;1275;22565;-66
2022/09/09 10:05:26;;;;;;;4.20;0.60;;;;;;;20.32;77.21;100085.80;105533;1275;24378;-65
2022/09/09 10:08:12;;;;;;;2.80;0.40;;;;;;;20.38;76.56;100080.76;105672;1275;22554;-65
2022/09/09 10:11:10;;;;;;;2.80;0.60;;;;;;;20.44;76.68;100083.61;105423;1275;22587;-65
2022/09/09 10:13:55;;;;;;;2.10;0.40;;;;;;;20.51;76.50;100083.89;105380;1275;25272;-67
2022/09/09 10:16:42;;;;;;;3.40;0.70;;;;;;;20.61;76.58;100083.15;105551;1274;25412;-67
2022/09/09 10:19:18;;;;;;;4.90;0.80;;;;;;;20.71;76.36;100081.20;105549;1275;25347;-67
2022/09/09 10:22:03;;;;;;;6.60;0.70;;;;;;;20.77;75.28;100080.63;105407;1275;22570;-67
2022/09/09 10:24:54;;;;;;;4.10;0.50;;;;;;;20.88;74.26;100079.46;105693;1274;26169;-67
2022/09/09 10:27:39;;;;;;;2.70;0.50;;;;;;;20.97;74.10;100081.20;105557;1274;22703;-66
2022/09/09 10:30:19;;;;;;;5.50;0.60;;;;;;;21.04;74.13;100083.75;105526;1274;25567;-67
2022/09/09 10:32:58;;;;;;;4.20;0.50;;;;;;;21.08;73.59;100089.04;105515;1275;22557;-66
2022/09/09 10:35:34;;;;;;;3.60;0.50;;;;;;;21.10;72.39;100085.42;105802;1274;22698;-67
2022/09/09 10:38:21;;;;;;;3.10;0.80;;;;;;;21.13;72.71;100076.89;105647;1274;24255;-66
2022/09/09 10:41:16;;;;;;;4.10;0.50;;;;;;;21.18;72.61;100071.34;105581;1273;24458;-67
2022/09/09 10:44:15;;;;;;;4.40;0.50;;;;;;;21.25;72.28;100067.73;105441;1275;25279;-68
2022/09/09 10:47:01;;;;;;;5.60;0.40;;;;;;;21.32;71.26;100068.33;105421;1275;22551;-67
2022/09/09 10:50:07;;;;;;;0.90;0.30;;;;;;;21.39;70.74;100072.88;105434;1275;22604;-67
2022/09/09 10:52:50;;;;;;;3.60;0.30;;;;;;;21.47;70.15;100073.15;105600;1275;22824;-66
2022/09/09 10:55:26;;;;;;;5.70;0.40;;;;;;;21.50;69.13;100069.11;105567;1274;22565;-68
2022/09/09 10:58:03;;;;;;;3.20;0.40;;;;;;;21.48;69.01;100067.93;105383;1275;24298;-67
2022/09/09 11:00:45;;;;;;;4.40;0.90;;;;;;;21.49;68.94;100061.39;105532;1274;22630;-68
2022/09/09 11:03:21;;;;;;;4.00;0.50;;;;;;;21.50;68.93;100063.73;105540;1275;22560;-69
2022/09/09 11:05:58;;;;;;;4.50;0.50;;;;;;;21.53;68.90;100064.77;105556;1275;24278;-66
2022/09/09 11:08:33;;;;;;;1.50;0.40;;;;;;;21.57;68.32;100065.60;105852;1275;24293;-68
2022/09/09 11:11:11;;;;;;;2.60;0.60;;;;;;;21.60;68.03;100070.77;105477;1275;22562;-67
2022/09/09 11:13:51;;;;;;;1.30;0.30;;;;;;;21.65;67.57;100065.71;105464;1275;24299;-67
2022/09/09 11:16:31;;;;;;;3.60;0.50;;;;;;;21.70;67.72;100065.85;105538;1274;22551;-66
2022/09/09 11:19:11;;;;;;;5.20;0.50;;;;;;;21.77;67.40;100067.45;105567;1275;23959;-67
2022/09/09 11:21:47;;;;;;;2.00;0.50;;;;;;;21.84;66.78;100064.73;105673;1274;22724;-68
2022/09/09 11:24:23;;;;;;;2.20;0.40;;;;;;;21.86;66.23;100070.88;105515;1274;22581;-68
2022/09/09 11:27:02;;;;;;;3.80;0.30;;;;;;;21.86;65.95;100066.75;105522;1275;22555;-68
2022/09/09 11:29:53;;;;;;;4.90;0.50;;;;;;;21.89;66.20;100074.61;105761;1275;24638;-68
2022/09/09 11:32:49;;;;;;;4.10;0.40;;;;;;;21.97;66.22;100074.38;105604;1274;22573;-68
2022/09/09 11:35:39;;;;;;;1.90;0.40;;;;;;;22.05;65.24;100071.86;105916;1275;22579;-68
2022/09/09 11:38:26;;;;;;;2.50;0.40;;;;;;;22.06;64.57;100066.76;105381;1275;22622;-68
2022/09/09 11:41:06;;;;;;;3.00;0.40;;;;;;;22.07;64.15;100066.70;105501;1275;22556;-68
2022/09/09 11:43:43;;;;;;;2.70;0.50;;;;;;;22.10;64.24;100066.64;105598;1275;22636;-68
2022/09/09 11:46:18;;;;;;;3.10;0.40;;;;;;;22.17;64.35;100062.50;105472;1275;22630;-69
2022/09/09 11:49:02;;;;;;;1.80;0.30;;;;;;;22.23;64.66;100058.92;105440;1275;25351;-68
2022/09/09 11:51:35;;;;;;;2.00;0.50;;;;;;;22.29;64.02;100057.61;105632;1275;22726;-69
2022/09/09 11:54:31;;;;;;;2.00;0.40;;;;;;;22.38;63.58;100061.58;106096;1275;22547;-68
2022/09/09 11:57:05;;;;;;;4.00;0.90;;;;;;;22.44;63.17;100066.55;105979;1275;22584;-68
2022/09/09 11:59:37;;;;;;;2.80;0.60;;;;;;;22.49;63.49;100065.39;105831;1275;25335;-68